Tiempo atmosférico en la estación meteorológica de Quinto, Zaragoza (205 m.)



Fecha
DESCASC
Temp. máxima en grados centígrados (hora)
DESCASC
Temp. mínima en grados centígrados (hora)
DESCASC
Temp. media en grados centígrados
DESCASC
Racha de viento máxima en m/sg (hora)
DESCASC
Velocidad máxima media en intervalos de 10 minutos(hora)
DESCASC
Precipitaciones diarias en mm
DESCASC
Precipitaciones de 00:00 a 06:00 en mm
DESCASC
Precipitaciones de 06:00 a 12:00 en mm
DESCASC
Precipitaciones de 12:00 a 18:00 en mm
DESCASC
Precipitaciones de 18:00 a 24:00 en mm
DESCASC
16-06-2019 32 (17:30) 12.7 (06:50) 22.3 8.06 (20:40) 4.72 (20:40) 0 0 0 0 0
15-06-2019 27.4 (18:30) 15 (07:00) 21.2 11.11 (04:50) 7.5 (08:40) 0 0 0 0 0
14-06-2019 30.6 (18:30) 13.1 (05:40) 21.9 8.06 (12:00) 5.28 (12:00) 0.2 0 0.2 0 0
13-06-2019 28.3 (16:00) 13.3 (00:00) 20.8 13.89 (17:40) 8.06 (17:40) 0 0 0 0 0
12-06-2019 25.2 (18:40) 6.5 (00:00) 15.9 9.72 (22:30) 5.83 (23:10) 0 0 0 0 0
11-06-2019 20.3 (17:30) 10.9 (00:00) 15.6 14.17 (18:10) 9.17 (20:00) 3 0 2.8 0.2 0
10-06-2019 23.7 (16:30) 14.6 (00:00) 19.2 18.89 (02:00) 10.83 (04:40) 0 0 0 0 0
09-06-2019 31.8 (17:10) 14.8 (00:00) 23.3 14.17 (22:00) 9.17 (22:50) 0 0 0 0 0
08-06-2019 28.6 (16:20) 10.7 (00:00) 19.7 14.17 (18:10) 7.78 (17:50) 0 0 0 0 0
07-06-2019 25.1 (17:30) 15.2 (00:00) 20.2 12.78 (08:20) 8.33 (08:20) 0 0 0 0 0
06-06-2019 27.3 (18:40) 9.5 (00:00) 18.4 16.94 (20:00) 9.44 (19:00) 0 0 0 0 0
05-06-2019 21 (18:40) 13.9 (00:00) 17.4 16.67 (14:10) 10.83 (14:10) 0 0 0 0 0
04-06-2019 34.1 (15:50) 13.3 (00:00) 23.7 11.94 (19:00) 7.22 (23:00) 1 0 0 0 1
03-06-2019 34.7 (16:30) 15.8 (00:00) 25.3 8.61 (17:40) 5.28 (20:50) 0 0 0 0 0
02-06-2019 35.6 (17:20) 13.6 (00:00) 24.6 8.61 (18:40) 5 (19:20) 0 0 0 0 0
01-06-2019 33.7 (18:20) 12.5 (00:00) 23.1 8.06 (20:10) 4.72 (20:10) 0 0 0 0 0
31-05-2019 31.4 (18:20) 12 (00:00) 21.7 7.22 (21:40) 4.17 (21:50) 0 0 0 0 0
30-05-2019 28.5 (18:10) 10.7 (00:00) 19.6 11.67 (00:10) 7.22 (00:20) 0 0 0 0 0
29-05-2019 22.8 (17:40) 12.1 (00:00) 17.4 20.56 (00:30) 13.33 (01:20) 0 0 0 0 0
28-05-2019 21.2 (16:30) 13 (00:00) 17.1 23.89 (19:10) 15.83 (22:20) 0 0 0 0 0
27-05-2019 25 (16:40) 12.9 (00:00) 18.9 18.61 (21:20) 11.39 (19:10) 0 0 0 0 0
26-05-2019 23.2 (17:10) 12.7 (00:00) 18 16.67 (20:00) 9.72 (19:20) 0 0 0 0 0
25-05-2019 23 (15:40) 13.4 (00:00) 18.2 18.89 (23:00) 11.39 (19:00) 0 0 0 0 0
24-05-2019 20.9 (16:20) 13 (00:00) 16.9 17.22 (09:00) 9.72 (16:30) 9.6 2.2 7.4 0 0
23-05-2019 29.1 (18:20) 10.4 (00:00) 19.8 15.83 (22:00) 9.17 (22:00) 0.4 0 0 0 0.4
22-05-2019 26.6 (20:00) 11 (00:00) 18.8 8.06 (16:50) 5.83 (16:50) 0 0 0 0 0
21-05-2019 25.1 (19:00) 9.9 (07:20) 17.5 8.61 (17:00) 6.11 (17:00) 0 0 0 0 0

Gráficas

Temp. máximas Temp. mínimas Temp. medias Precipitaciones Rachas de viento máximas Velocidades máximas media en intervalos de 10 minutos

Datos horarios

Fecha y hora oficial Temperatura (ºC) Velocidad del viento (km/h) Dirección del viento Racha (km/h) Dirección de racha Precipitación (mm) Presión (hPa) Tendencia (hPa) Humedad (%)
2019-06-19 23:00:00 28.2 3 Noroeste 9 Nordeste 0 -- -- 35
2019-06-19 22:00:00 29 3 Norte 8 Noroeste 0 -- -- 35
2019-06-19 21:00:00 29.9 7 Noroeste 16 Noroeste 0 -- -- 36
2019-06-19 20:00:00 32.5 7 Noroeste 16 Noroeste 0 -- -- 28
2019-06-19 19:00:00 33.1 3 Noroeste 10 Norte 0 -- -- 28
2019-06-19 18:00:00 31.8 10 Norte 25 Norte 0 -- -- 30
2019-06-19 17:00:00 32.9 16 Noroeste 26 Norte 0 -- -- 29
2019-06-19 16:00:00 32.1 16 Norte 26 Norte 0 -- -- 30
2019-06-19 15:00:00 31.5 9 Norte 26 Norte 0 -- -- 31
2019-06-19 14:00:00 30.9 14 Norte 23 Norte 0 -- -- 32
2019-06-19 13:00:00 29.3 7 Norte 15 Norte 0 -- -- 34
2019-06-19 12:00:00 27.4 6 Noroeste 13 Norte 0 -- -- 37
2019-06-19 11:00:00 25.9 5 Nordeste 12 Este 0 -- -- 38
2019-06-19 10:00:00 23 3 Norte 8 Este 0 -- -- 46
2019-06-19 09:00:00 20.4 3 Norte 6 Noroeste 0 -- -- 50
2019-06-19 08:00:00 17.3 2 Noroeste 7 Sudoeste 0 -- -- 55
2019-06-19 07:00:00 13.7 5 Sudoeste 8 Sudoeste 0 -- -- 65
2019-06-19 06:00:00 14.2 6 Sudoeste 9 Sudoeste 0 -- -- 63
2019-06-19 05:00:00 17.2 2 Este 6 Nordeste 0 -- -- 53
2019-06-19 04:00:00 17.7 4 Este 11 Este 0 -- -- 52
2019-06-19 03:00:00 18.6 4 Nordeste 11 Este 0 -- -- 48
2019-06-19 02:00:00 20 6 Este 18 Nordeste 0 -- -- 46
2019-06-19 01:00:00 21.2 7 Este 19 Nordeste 0 -- -- 45
2019-06-19 00:00:00 22.6 4 Nordeste 13 Este 0 -- -- 39
2019-06-18 23:00:00 25 4 Este 17 Este 0 -- -- 32
2019-06-18 22:00:00 26.7 6 Nordeste 37 Este 0 -- -- 30
2019-06-18 21:00:00 29.1 14 Este 34 Este 0 -- -- 28
2019-06-18 20:00:00 32.3 12 Este 35 Este 0 -- -- 26
2019-06-18 19:00:00 33.8 15 Este 36 Este 0 -- -- 29
2019-06-18 18:00:00 35.1 22 Este 38 Este 0 -- -- 29
2019-06-18 17:00:00 36.2 17 Este 35 Este 0 -- -- 24
2019-06-18 16:00:00 36.3 14 Este 31 Este 0 -- -- 23
2019-06-18 15:00:00 35.2 8 Nordeste 21 Nordeste 0 -- -- 23
2019-06-18 14:00:00 33.6 9 Nordeste 21 Este 0 -- -- 26
2019-06-18 13:00:00 31.8 9 Nordeste 24 Este 0 -- -- 30
2019-06-18 12:00:00 29 6 Nordeste 17 Nordeste 0 -- -- 32
2019-06-18 11:00:00 26.7 7 Norte 16 Nordeste 0 -- -- 38
2019-06-18 10:00:00 23.9 5 Este 18 Sur 0 -- -- 42
2019-06-18 09:00:00 20.6 11 Sudoeste 24 Sudeste 0 -- -- 51
2019-06-18 08:00:00 19.3 9 Sudeste 17 Norte 0 -- -- 53
2019-06-18 07:00:00 17.3 7 Sudoeste 9 Sudoeste 0 -- -- 56
2019-06-18 06:00:00 20 5 Este 15 Este 0 -- -- 45
2019-06-18 05:00:00 20.4 7 Este 17 Este 0 -- -- 44
2019-06-18 04:00:00 20.8 10 Este 25 Este 0 -- -- 44
2019-06-18 03:00:00 22.1 14 Este 22 Este 0 -- -- 42
2019-06-18 02:00:00 24.2 12 Este 29 Sudeste 0 -- -- 38
2019-06-18 01:00:00 25.2 18 Sudeste 35 Este 0 -- -- 36
2019-06-18 00:00:00 25.1 14 Este 25 Sudeste 0 -- -- 39
2019-06-17 23:00:00 26 15 Sudeste 27 Sudeste 0 -- -- 40
2019-06-17 22:00:00 28 13 Este 33 Este 0 -- -- 38
2019-06-17 21:00:00 30.9 14 Este 31 Este 0 -- -- 32
2019-06-17 20:00:00 33.1 21 Este 44 Nordeste 0 -- -- 26
2019-06-17 19:00:00 35.4 6 Nordeste 22 Este 0 -- -- 19
2019-06-17 18:00:00 35.5 10 Este 19 Norte 0 -- -- 20
2019-06-17 17:00:00 34.6 12 Norte 18 Norte 0 -- -- 19
2019-06-17 16:00:00 34.5 8 Norte 15 Norte 0 -- -- 20
2019-06-17 15:00:00 33.3 7 Nordeste 14 Norte 0 -- -- 23
2019-06-17 14:00:00 31.6 6 Norte 16 Norte 0 -- -- 26
2019-06-17 13:00:00 30 6 Este 15 Este 0 -- -- 33
2019-06-17 12:00:00 28.2 6 Sudeste 13 Sur 0 -- -- 36
2019-06-17 11:00:00 25.6 4 Este 14 Sudeste 0 -- -- 41
2019-06-17 10:00:00 23.4 6 Sudeste 12 Sudeste 0 -- -- 45
2019-06-17 09:00:00 21.1 4 Este 10 Este 0 -- -- 49
2019-06-17 08:00:00 17.8 0 Calma 8 Este 0 -- -- 61
2019-06-17 07:00:00 14.1 6 Sudoeste 15 Sudoeste 0 -- -- 71
2019-06-17 06:00:00 14.6 4 Sur 12 Sudoeste 0 -- -- 70
2019-06-17 05:00:00 16.5 5 Sur 8 Sudeste 0 -- -- 62
2019-06-17 04:00:00 17.2 2 Este 12 Este 0 -- -- 61
2019-06-17 03:00:00 17.3 3 Sudeste 8 Sudoeste 0 -- -- 62
2019-06-17 02:00:00 18 4 Sudoeste 13 Sudoeste 0 -- -- 59
2019-06-17 01:00:00 19.3 4 Sudoeste 9 Sudoeste 0 -- -- 55
2019-06-17 00:00:00 22 3 Sudeste 9 Este 0 -- -- 47
2019-06-16 23:00:00 23.9 6 Nordeste 17 Este 0 -- -- 42
2019-06-16 22:00:00 25.9 12 Este 25 Este 0 -- -- 34
2019-06-16 21:00:00 28 15 Sudeste 29 Sudeste 0 -- -- 33
2019-06-16 20:00:00 29.7 14 Sudeste 24 Este 0 -- -- 31
2019-06-16 19:00:00 31.4 5 Norte 10 Norte 0 -- -- 25
2019-06-16 18:00:00 31.7 6 Norte 12 Norte 0 -- -- 22
2019-06-16 17:00:00 31.6 5 Este 14 Norte 0 -- -- 22
2019-06-16 16:00:00 30.5 5 Noroeste 14 Nordeste 0 -- -- 24
2019-06-16 15:00:00 29.7 5 Este 15 Este 0 -- -- 27
2019-06-16 14:00:00 27.4 7 Norte 14 Nordeste 0 -- -- 30
2019-06-16 13:00:00 25.6 5 Sudeste 12 Este 0 -- -- 32
2019-06-16 12:00:00 22.9 6 Norte 15 Nordeste 0 -- -- 42
2019-06-16 11:00:00 21.6 6 Noroeste 10 Noroeste 0 -- -- 45
2019-06-16 10:00:00 19 7 Noroeste 13 Norte 0 -- -- 54
2019-06-16 09:00:00 16.8 5 Noroeste 9 Noroeste 0 -- -- 60
2019-06-16 08:00:00 14.6 5 Noroeste 8 Este 0 -- -- 68
2019-06-16 07:00:00 12.8 3 Nordeste 8 Nordeste 0 -- -- 72
2019-06-16 06:00:00 13.3 4 Este 9 Oeste 0 -- -- 71
2019-06-16 05:00:00 13.8 7 Sudoeste 10 Oeste 0 -- -- 63
2019-06-16 04:00:00 14.7 5 Oeste 11 Oeste 0 -- -- 61
2019-06-16 03:00:00 15.5 2 Norte 9 Noroeste 0 -- -- 61
2019-06-16 02:00:00 16.2 4 Norte 12 Noroeste 0 -- -- 58
2019-06-16 01:00:00 17.7 10 Noroeste 16 Noroeste 0 -- -- 50
2019-06-16 00:00:00 19.7 3 Oeste 16 Oeste 0 -- -- 43
2019-06-15 23:00:00 21.3 10 Oeste 19 Noroeste 0 -- -- 40
2019-06-15 22:00:00 23.4 12 Noroeste 26 Noroeste 0 -- -- 36
2019-06-15 21:00:00 25.5 15 Noroeste 30 Noroeste 0 -- -- 31
2019-06-15 20:00:00 26.9 18 Noroeste 31 Noroeste 0 -- -- 29
2019-06-15 19:00:00 27.4 15 Noroeste 30 Noroeste 0 -- -- 28
2019-06-15 18:00:00 27.3 22 Noroeste 32 Noroeste 0 -- -- 27
2019-06-15 17:00:00 27 17 Noroeste 31 Noroeste 0 -- -- 29
2019-06-15 16:00:00 26.7 17 Noroeste 38 Noroeste 0 -- -- 28
2019-06-15 15:00:00 26 20 Noroeste 37 Noroeste 0 -- -- 29
2019-06-15 14:00:00 24.9 24 Noroeste 37 Noroeste 0 -- -- 31
2019-06-15 13:00:00 23.7 27 Noroeste 38 Noroeste 0 -- -- 40
2019-06-15 12:00:00 22 20 Noroeste 35 Noroeste 0 -- -- 45
2019-06-15 11:00:00 20.6 21 Noroeste 37 Noroeste 0 -- -- 48
2019-06-15 10:00:00 19.2 19 Noroeste 36 Oeste 0 -- -- 53
2019-06-15 09:00:00 17.8 25 Noroeste 40 Noroeste 0 -- -- 57
2019-06-15 08:00:00 16.5 19 Oeste 34 Oeste 0 -- -- 63
2019-06-15 07:00:00 15 11 Oeste 28 Noroeste 0 -- -- 69
2019-06-15 06:00:00 15.5 17 Oeste 38 Oeste 0 -- -- 69
2019-06-15 05:00:00 16 27 Oeste 40 Oeste 0 -- -- 67
2019-06-15 04:00:00 16.1 15 Oeste 32 Oeste 0 -- -- 67
2019-06-15 03:00:00 17 18 Noroeste 36 Oeste 0 -- -- 64
2019-06-15 02:00:00 18.4 16 Noroeste 34 Oeste 0 -- -- 60
2019-06-15 01:00:00 20.5 23 Oeste 39 Oeste 0 -- -- 54
2019-06-15 00:00:00 23.1 9 Noroeste 26 Sur 0 -- -- 51
2019-06-14 23:00:00 24.3 3 Este 15 Sudeste 0 -- -- 45
2019-06-14 22:00:00 27.1 10 Sudeste 17 Sudeste 0 -- -- 36
2019-06-14 21:00:00 29.3 11 Sudeste 19 Este 0 -- -- 35
2019-06-14 20:00:00 30.2 4 Nordeste 13 Norte 0 -- -- 31
2019-06-14 19:00:00 30.5 5 Nordeste 12 Norte 0 -- -- 32
2019-06-14 18:00:00 29.9 6 Noroeste 12 Noroeste 0 -- -- 31
2019-06-14 17:00:00 29 5 Nordeste 15 Este 0 -- -- 31
2019-06-14 16:00:00 27.9 7 Nordeste 15 Nordeste 0 -- -- 38
2019-06-14 15:00:00 25.2 8 Norte 17 Noroeste 0 -- -- 42
2019-06-14 14:00:00 21.9 11 Norte 21 Oeste 0 -- -- 50
2019-06-14 13:00:00 22 12 Oeste 22 Oeste 0 -- -- 45
2019-06-14 12:00:00 21.1 19 Noroeste 29 Noroeste 0 -- -- 49
2019-06-14 11:00:00 17.9 17 Oeste 28 Oeste 0 -- -- 64
2019-06-14 10:00:00 16 7 Noroeste 19 Noroeste 0 -- -- 74
2019-06-14 09:00:00 13.7 8 Norte 13 Norte 0.2 -- -- 70
2019-06-14 08:00:00 14.5 2 Sur 9 Noroeste 0 -- -- 50
2019-06-14 07:00:00 14 5 Noroeste 8 Noroeste 0 -- -- 50
2019-06-14 06:00:00 13.3 4 Oeste 13 Sudoeste 0 -- -- 51
2019-06-14 05:00:00 13.5 10 Sudoeste 13 Sudoeste 0 -- -- 51
2019-06-14 04:00:00 16.2 3 Sur 11 Este 0 -- -- 39
2019-06-14 03:00:00 17.6 10 Este 19 Este 0 -- -- 32
2019-06-14 02:00:00 18.1 12 Este 23 Este 0 -- -- 28
2019-06-14 01:00:00 18.8 13 Este 26 Este 0 -- -- 26
2019-06-14 00:00:00 19 12 Este 24 Este 0 -- -- 26
2019-06-13 23:00:00 19.7 14 Este 29 Este 0 -- -- 26
2019-06-13 22:00:00 20.8 17 Este 35 Este 0 -- -- 28
2019-06-13 21:00:00 22.5 15 Este 39 Este 0 -- -- 40
2019-06-13 20:00:00 23.8 21 Este 39 Este 0 -- -- 45
2019-06-13 19:00:00 23.4 20 Este 49 Este 0 -- -- 51
2019-06-13 18:00:00 24.7 28 Este 50 Este 0 -- -- 45
2019-06-13 17:00:00 28.2 23 Este 40 Este 0 -- -- 38
2019-06-13 16:00:00 28.3 22 Este 40 Este 0 -- -- 37
2019-06-13 15:00:00 28.1 15 Este 35 Este 0 -- -- 39
2019-06-13 14:00:00 26.6 17 Este 39 Sudeste 0 -- -- 43
2019-06-13 13:00:00 25.8 18 Este 34 Nordeste 0 -- -- 44
2019-06-13 12:00:00 24.5 14 Nordeste 29 Este 0 -- -- 47
2019-06-13 11:00:00 22.8 15 Este 27 Este 0 -- -- 52
2019-06-13 10:00:00 20.2 10 Este 23 Este 0 -- -- 58
2019-06-13 09:00:00 17.4 13 Este 27 Este 0 -- -- 62
2019-06-13 08:00:00 15.7 4 Este 15 Este 0 -- -- 65
2019-06-13 07:00:00 13.5 9 Este 19 Este 0 -- -- 68
2019-06-13 06:00:00 13.6 13 Este 30 Este 0 -- -- 68
2019-06-13 05:00:00 13.8 14 Este 30 Este 0 -- -- 64
2019-06-13 04:00:00 13.9 12 Este 22 Este 0 -- -- 64
2019-06-13 03:00:00 15 14 Este 22 Este 0 -- -- 60
2019-06-13 02:00:00 15.3 13 Este 23 Este 0 -- -- 57
2019-06-13 01:00:00 16 10 Este 16 Este 0 -- -- 52
2019-06-13 00:00:00 17.6 8 Este 30 Este 0 -- -- 48
2019-06-12 23:00:00 19 18 Este 35 Este 0 -- -- 44
2019-06-12 22:00:00 20.8 16 Este 31 Nordeste 0 -- -- 38
2019-06-12 21:00:00 22.2 13 Este 31 Este 0 -- -- 32
2019-06-12 20:00:00 24.5 12 Este 24 Este 0 -- -- 27
2019-06-12 19:00:00 25 11 Nordeste 30 Este 0 -- -- 26
2019-06-12 18:00:00 25 4 Este 14 Nordeste 0 -- -- 26
2019-06-12 17:00:00 24.4 7 Norte 16 Sudoeste 0 -- -- 28
2019-06-12 16:00:00 23.6 10 Noroeste 19 Noroeste 0 -- -- 29
2019-06-12 15:00:00 21.9 9 Norte 18 Norte 0 -- -- 33
2019-06-12 14:00:00 21.4 6 Norte 23 Sur 0 -- -- 35
2019-06-12 13:00:00 20.3 4 Nordeste 17 Este 0 -- -- 37
2019-06-12 12:00:00 18.6 5 Norte 13 Norte 0 -- -- 39
2019-06-12 11:00:00 17.3 6 Oeste 13 Oeste 0 -- -- 48
2019-06-12 10:00:00 15.4 5 Sudoeste 13 Sudeste 0 -- -- 53
2019-06-12 09:00:00 12.6 4 Sudeste 7 Este 0 -- -- 66
2019-06-12 08:00:00 10.2 0 Calma 7 Este 0 -- -- 76
2019-06-12 07:00:00 6.6 2 Este 6 Sudoeste 0 -- -- 84
2019-06-12 06:00:00 6.9 7 Oeste 11 Sudoeste 0 -- -- 82
2019-06-12 05:00:00 7.5 6 Sudoeste 14 Sudoeste 0 -- -- 80
2019-06-12 04:00:00 8.6 11 Sudoeste 17 Sudoeste 0 -- -- 77
2019-06-12 03:00:00 9.1 5 Sur 17 Oeste 0 -- -- 74
2019-06-12 02:00:00 10.4 14 Sudoeste 27 Oeste 0 -- -- 69
2019-06-12 01:00:00 12.8 15 Oeste 27 Oeste 0 -- -- 58
2019-06-12 00:00:00 13.2 16 Oeste 26 Oeste 0 -- -- 58
2019-06-11 23:00:00 14.3 15 Oeste 31 Oeste 0 -- -- 53
2019-06-11 22:00:00 15.6 22 Noroeste 39 Oeste 0 -- -- 48
2019-06-11 21:00:00 17.5 23 Noroeste 51 Noroeste 0 -- -- 43
2019-06-11 20:00:00 18.8 33 Noroeste 49 Noroeste 0 -- -- 39
2019-06-11 19:00:00 19.9 27 Noroeste 51 Oeste 0 -- -- 35
2019-06-11 18:00:00 19.4 28 Noroeste 46 Oeste 0 -- -- 38
2019-06-11 17:00:00 20.2 24 Noroeste 40 Oeste 0 -- -- 39
2019-06-11 16:00:00 18.9 13 Noroeste 32 Oeste 0 -- -- 46
2019-06-11 15:00:00 16.8 13 Oeste 24 Oeste 0 -- -- 59
2019-06-11 14:00:00 14.3 15 Oeste 27 Oeste 0 -- -- 76
2019-06-11 13:00:00 12.8 15 Oeste 29 Oeste 0.2 -- -- 81
2019-06-11 12:00:00 12.1 21 Oeste 32 Oeste 0.4 -- -- 84
2019-06-11 11:00:00 11.7 22 Oeste 35 Noroeste 0.6 -- -- 82
2019-06-11 10:00:00 11.4 20 Oeste 35 Noroeste 0.6 -- -- 84
2019-06-11 09:00:00 10.9 22 Noroeste 34 Noroeste 0.8 -- -- 85
2019-06-11 08:00:00 11.6 18 Noroeste 28 Oeste 0.2 -- -- 75
2019-06-11 07:00:00 12.2 13 Noroeste 23 Oeste 0.2 -- -- 70
2019-06-11 06:00:00 13.1 14 Oeste 30 Oeste 0 -- -- 65
2019-06-11 05:00:00 13.6 14 Noroeste 36 Oeste 0 -- -- 59
2019-06-11 04:00:00 13.8 13 Oeste 35 Oeste 0 -- -- 62
2019-06-11 03:00:00 14.8 20 Oeste 36 Noroeste 0 -- -- 53
2019-06-11 02:00:00 15.6 20 Oeste 37 Oeste 0 -- -- 46
2019-06-11 01:00:00 16.2 18 Oeste 39 Oeste 0 -- -- 44
2019-06-11 00:00:00 16.6 24 Oeste 38 Oeste 0 -- -- 42
2019-06-10 23:00:00 16.4 17 Oeste 30 Noroeste 0 -- -- 45
2019-06-10 22:00:00 17.8 19 Oeste 41 Noroeste 0 -- -- 42
2019-06-10 21:00:00 18.9 21 Noroeste 40 Noroeste 0 -- -- 42
2019-06-10 20:00:00 20.8 27 Noroeste 44 Oeste 0 -- -- 40
2019-06-10 19:00:00 21.5 30 Noroeste 48 Oeste 0 -- -- 38
2019-06-10 18:00:00 22.7 30 Noroeste 49 Noroeste 0 -- -- 36
2019-06-10 17:00:00 23.6 29 Noroeste 47 Noroeste 0 -- -- 37
2019-06-10 16:00:00 23.4 28 Noroeste 48 Oeste 0 -- -- 36
2019-06-10 15:00:00 22.6 26 Noroeste 44 Noroeste 0 -- -- 39
2019-06-10 14:00:00 21.4 30 Noroeste 46 Oeste 0 -- -- 42
2019-06-10 13:00:00 20.7 31 Noroeste 48 Oeste 0 -- -- 43
2019-06-10 12:00:00 19.6 30 Noroeste 50 Oeste 0 -- -- 46
2019-06-10 11:00:00 19 31 Oeste 52 Oeste 0 -- -- 48
2019-06-10 10:00:00 18.2 30 Oeste 54 Noroeste 0 -- -- 51
2019-06-10 09:00:00 16.6 29 Oeste 51 Oeste 0 -- -- 56
2019-06-10 08:00:00 15.6 21 Noroeste 53 Oeste 0 -- -- 62
2019-06-10 07:00:00 14.6 23 Oeste 45 Oeste 0 -- -- 65
2019-06-10 06:00:00 14.8 33 Noroeste 57 Noroeste 0 -- -- 65
2019-06-10 05:00:00 15.3 28 Noroeste 59 Noroeste 0 -- -- 64
2019-06-10 04:00:00 15.6 35 Noroeste 58 Noroeste 0 -- -- 65
2019-06-10 03:00:00 16.3 38 Noroeste 59 Noroeste 0 -- -- 64
2019-06-10 02:00:00 16.8 34 Oeste 68 Noroeste 0 -- -- 64
2019-06-10 01:00:00 17.5 30 Noroeste 57 Noroeste 0 -- -- 62
2019-06-10 00:00:00 18.6 31 Oeste 51 Oeste 0 -- -- 59
2019-06-09 23:00:00 20.5 31 Oeste 49 Oeste 0 -- -- 54
2019-06-09 22:00:00 23 31 Noroeste 51 Noroeste 0 -- -- 48
2019-06-09 21:00:00 29 5 Nordeste 13 Noroeste 0 -- -- 28
2019-06-09 20:00:00 30.6 9 Noroeste 15 Noroeste 0 -- -- 24
2019-06-09 19:00:00 31 10 Norte 19 Noroeste 0 -- -- 25
2019-06-09 18:00:00 31.2 8 Noroeste 17 Norte 0 -- -- 22
2019-06-09 17:00:00 31.7 5 Noroeste 19 Norte 0 -- -- 22
2019-06-09 16:00:00 30.8 6 Norte 17 Norte 0 -- -- 23
2019-06-09 15:00:00 29.4 8 Norte 18 Noroeste 0 -- -- 27
2019-06-09 14:00:00 28.7 6 Nordeste 13 Oeste 0 -- -- 28
2019-06-09 13:00:00 27.7 8 Este 16 Sudeste 0 -- -- 26
2019-06-09 12:00:00 26.3 6 Sudeste 13 Sudeste 0 -- -- 28
2019-06-09 11:00:00 23.6 6 Sudeste 12 Nordeste 0 -- -- 33
2019-06-09 10:00:00 21.2 5 Norte 9 Norte 0 -- -- 40
2019-06-09 09:00:00 18.9 4 Noroeste 7 Norte 0 -- -- 49
2019-06-09 08:00:00 15.3 0 Calma 10 Sudoeste 0 -- -- 54
2019-06-09 07:00:00 15.1 8 Sudoeste 12 Sudoeste 0 -- -- 54
2019-06-09 06:00:00 16.7 8 Sur 14 Sudeste 0 -- -- 50
2019-06-09 05:00:00 17.7 8 Sudeste 12 Este 0 -- -- 43
2019-06-09 04:00:00 18.2 6 Este 14 Este 0 -- -- 43
2019-06-09 03:00:00 18.4 6 Nordeste 23 Este 0 -- -- 43
2019-06-09 02:00:00 18.5 12 Este 22 Este 0 -- -- 42
2019-06-09 01:00:00 18.9 9 Este 26 Este 0 -- -- 42
2019-06-09 00:00:00 19.7 12 Este 26 Este 0 -- -- 40
2019-06-08 23:00:00 20.3 14 Este 36 Este 0 -- -- 41
2019-06-08 22:00:00 21.7 19 Este 34 Este 0 -- -- 38
2019-06-08 21:00:00 22.9 19 Este 44 Este 0 -- -- 37
2019-06-08 20:00:00 23.6 21 Este 46 Este 0 -- -- 36
2019-06-08 19:00:00 24.8 21 Este 51 Este 0 -- -- 35
2019-06-08 18:00:00 26.3 27 Este 44 Este 0 -- -- 33
2019-06-08 17:00:00 28.3 22 Este 42 Este 0 -- -- 30
2019-06-08 16:00:00 28.2 21 Este 37 Este 0 -- -- 30
2019-06-08 15:00:00 27.2 17 Este 32 Este 0 -- -- 31
2019-06-08 14:00:00 25.8 17 Sudeste 30 Este 0 -- -- 33
2019-06-08 13:00:00 23 5 Sudeste 13 Sudeste 0 -- -- 38
2019-06-08 12:00:00 19.9 6 Noroeste 15 Noroeste 0 -- -- 43
2019-06-08 11:00:00 18.4 10 Noroeste 19 Noroeste 0 -- -- 47
2019-06-08 10:00:00 16.8 8 Noroeste 15 Noroeste 0 -- -- 52
2019-06-08 09:00:00 15.6 4 Norte 14 Noroeste 0 -- -- 56
2019-06-08 08:00:00 13.6 2 Este 7 Este 0 -- -- 58
2019-06-08 07:00:00 10.7 0 Calma 9 Oeste 0 -- -- 67
2019-06-08 06:00:00 11.1 4 Norte 13 Oeste 0 -- -- 68
2019-06-08 05:00:00 12.3 7 Oeste 17 Noroeste 0 -- -- 62
2019-06-08 04:00:00 13.3 8 Oeste 14 Noroeste 0 -- -- 60
2019-06-08 03:00:00 14 4 Noroeste 15 Oeste 0 -- -- 60
2019-06-08 02:00:00 13.6 8 Oeste 13 Oeste 0 -- -- 58
2019-06-08 01:00:00 13.4 3 Sudoeste 9 Oeste 0 -- -- 51
2019-06-08 00:00:00 15.2 4 Oeste 6 Oeste 0 -- -- 45
2019-06-07 23:00:00 18.2 5 Oeste 10 Noroeste 0 -- -- 38
2019-06-07 22:00:00 20.4 5 Oeste 12 Noroeste 0 -- -- 32
2019-06-07 21:00:00 22.8 9 Noroeste 23 Noroeste 0 -- -- 29
2019-06-07 20:00:00 23.9 15 Noroeste 39 Noroeste 0 -- -- 27
2019-06-07 19:00:00 24.4 24 Noroeste 41 Noroeste 0 -- -- 25
2019-06-07 18:00:00 24.8 17 Noroeste 37 Oeste 0 -- -- 24
2019-06-07 17:00:00 24.9 17 Oeste 36 Oeste 0 -- -- 22
2019-06-07 16:00:00 24.6 21 Oeste 36 Oeste 0 -- -- 24
2019-06-07 15:00:00 24.2 21 Oeste 39 Oeste 0 -- -- 24
2019-06-07 14:00:00 23.1 22 Oeste 39 Oeste 0 -- -- 24
2019-06-07 13:00:00 22.4 18 Oeste 42 Sudoeste 0 -- -- 30
2019-06-07 12:00:00 20.8 28 Sudoeste 45 Oeste 0 -- -- 34
2019-06-07 11:00:00 19 19 Oeste 32 Oeste 0 -- -- 39
2019-06-07 10:00:00 15.2 10 Noroeste 34 Oeste 0 -- -- 61
2019-06-07 09:00:00 15.2 18 Oeste 46 Oeste 0 -- -- 58
2019-06-07 08:00:00 16.4 22 Noroeste 39 Oeste 0 -- -- 62
2019-06-07 07:00:00 15.5 4 Norte 14 Este 0 -- -- 81
2019-06-07 06:00:00 15.5 6 Este 11 Este 0 -- -- 79
2019-06-07 05:00:00 16.5 7 Este 21 Este 0 -- -- 73
2019-06-07 04:00:00 17.1 9 Este 22 Este 0 -- -- 69
2019-06-07 03:00:00 18.8 6 Este 30 Este 0 -- -- 59
2019-06-07 02:00:00 19.5 17 Este 32 Este 0 -- -- 57
2019-06-07 01:00:00 19.9 19 Este 35 Este 0 -- -- 55
2019-06-07 00:00:00 20.4 22 Este 42 Este 0 -- -- 51
2019-06-06 23:00:00 20.6 26 Este 50 Este 0 -- -- 50
2019-06-06 22:00:00 22.6 28 Este 51 Este 0 -- -- 41
2019-06-06 21:00:00 23.5 27 Este 50 Este 0 -- -- 40
2019-06-06 20:00:00 25.8 33 Sudeste 61 Sudeste 0 -- -- 34
2019-06-06 19:00:00 26.6 34 Sudeste 49 Este 0 -- -- 32
2019-06-06 18:00:00 26.6 21 Este 41 Este 0 -- -- 34
2019-06-06 17:00:00 26.3 25 Este 43 Este 0 -- -- 35
2019-06-06 16:00:00 26.5 22 Este 38 Este 0 -- -- 35
2019-06-06 15:00:00 27 17 Este 36 Este 0 -- -- 30
2019-06-06 14:00:00 25.6 11 Este 24 Este 0 -- -- 29
2019-06-06 13:00:00 23.6 7 Este 18 Sudeste 0 -- -- 35
2019-06-06 12:00:00 20.9 5 Norte 14 Este 0 -- -- 44
2019-06-06 11:00:00 18.4 5 Nordeste 13 Nordeste 0 -- -- 47
2019-06-06 10:00:00 17.1 4 Nordeste 10 Este 0 -- -- 54
2019-06-06 09:00:00 15.3 3 Norte 6 Este 0 -- -- 62
2019-06-06 08:00:00 12.9 0 Calma 4 Este 0 -- -- 71
2019-06-06 07:00:00 9.5 0 Calma 4 Sur 0 -- -- 76
2019-06-06 06:00:00 10.6 0 Calma 5 Sudoeste 0 -- -- 73
2019-06-06 05:00:00 11.3 4 Sudoeste 6 Sudoeste 0 -- -- 70
2019-06-06 04:00:00 12.3 4 Sudoeste 16 Oeste 0 -- -- 66
2019-06-06 03:00:00 13.5 10 Oeste 15 Oeste 0 -- -- 62
2019-06-06 02:00:00 13.3 7 Oeste 18 Oeste 0 -- -- 64
2019-06-06 01:00:00 13.6 14 Oeste 18 Oeste 0 -- -- 62
2019-06-06 00:00:00 13.9 13 Sudoeste 22 Oeste 0 -- -- 61
2019-06-05 23:00:00 16 14 Oeste 28 Oeste 0 -- -- 55
2019-06-05 22:00:00 17.1 18 Oeste 34 Noroeste 0 -- -- 53
2019-06-05 21:00:00 18.9 18 Noroeste 40 Oeste 0 -- -- 47
2019-06-05 20:00:00 20.1 24 Noroeste 42 Oeste 0 -- -- 42
2019-06-05 19:00:00 20.6 24 Noroeste 50 Oeste 0 -- -- 43
2019-06-05 18:00:00 20.9 29 Noroeste 54 Noroeste 0 -- -- 43
2019-06-05 17:00:00 20 33 Noroeste 60 Noroeste 0 -- -- 45
2019-06-05 16:00:00 19.2 33 Oeste 56 Oeste 0 -- -- 50
2019-06-05 15:00:00 18 36 Oeste 60 Oeste 0 -- -- 53
2019-06-05 14:00:00 17.1 32 Oeste 51 Oeste 0 -- -- 65
2019-06-05 13:00:00 17.3 33 Noroeste 51 Noroeste 0 -- -- 61
2019-06-05 12:00:00 16.3 31 Noroeste 48 Oeste 0 -- -- 66
2019-06-05 11:00:00 15.5 30 Noroeste 55 Noroeste 0 -- -- 72
2019-06-05 10:00:00 15.8 28 Noroeste 45 Oeste 0 -- -- 69
2019-06-05 09:00:00 15.1 21 Oeste 32 Oeste 0 -- -- 72
2019-06-05 08:00:00 14.5 15 Oeste 27 Oeste 0 -- -- 73
2019-06-05 07:00:00 14.2 14 Oeste 24 Oeste 0 -- -- 70
2019-06-05 06:00:00 14.6 15 Oeste 27 Oeste 0 -- -- 69
2019-06-05 05:00:00 14.9 5 Oeste 21 Oeste 0 -- -- 67
2019-06-05 04:00:00 15.3 8 Oeste 27 Noroeste 0 -- -- 67
2019-06-05 03:00:00 15.9 18 Noroeste 31 Noroeste 0 -- -- 67
2019-06-05 02:00:00 16.6 18 Noroeste 37 Noroeste 0 -- -- 68
2019-06-05 01:00:00 17.9 24 Noroeste 36 Oeste 0 -- -- 69
2019-06-05 00:00:00 19.2 21 Noroeste 43 Oeste 0 -- -- 68
2019-06-04 23:00:00 22 26 Noroeste 40 Noroeste 1 -- -- 67
2019-06-04 22:00:00 24.7 5 Nordeste 30 Este 0 -- -- 50
2019-06-04 21:00:00 26.9 16 Este 28 Este 0 -- -- 46
2019-06-04 20:00:00 28.9 9 Nordeste 32 Este 0 -- -- 43
2019-06-04 19:00:00 29.9 18 Este 43 Este 0 -- -- 40
2019-06-04 18:00:00 32.9 20 Este 36 Este 0 -- -- 31
2019-06-04 17:00:00 34.1 20 Este 34 Este 0 -- -- 29
2019-06-04 16:00:00 33.8 15 Este 30 Este 0 -- -- 28
2019-06-04 15:00:00 34 15 Este 28 Nordeste 0 -- -- 29
2019-06-04 14:00:00 32.7 10 Este 23 Nordeste 0 -- -- 29
2019-06-04 13:00:00 30.2 9 Este 18 Este 0 -- -- 35
2019-06-04 12:00:00 27 4 Sudeste 16 Este 0 -- -- 41
2019-06-04 11:00:00 24.1 5 Este 15 Sudeste 0 -- -- 45
2019-06-04 10:00:00 22.2 6 Sudeste 13 Sudeste 0 -- -- 48
2019-06-04 09:00:00 19.9 3 Sudeste 11 Sudoeste 0 -- -- 51
2019-06-04 08:00:00 14.8 10 Sudoeste 13 Sudoeste 0 -- -- 70
2019-06-04 07:00:00 13.4 8 Sudoeste 10 Sudoeste 0 -- -- 73
2019-06-04 06:00:00 13.7 8 Sudoeste 10 Sudoeste 0 -- -- 72
2019-06-04 05:00:00 14.7 6 Sudoeste 12 Sudoeste 0 -- -- 69
2019-06-04 04:00:00 16.6 6 Sudoeste 8 Sudoeste 0 -- -- 62
2019-06-04 03:00:00 18.3 2 Este 6 Este 0 -- -- 55
2019-06-04 02:00:00 19.3 2 Nordeste 10 Este 0 -- -- 54
2019-06-04 01:00:00 20.3 5 Este 11 Este 0 -- -- 51
2019-06-04 00:00:00 21.4 3 Este 21 Este 0 -- -- 49
2019-06-03 23:00:00 22.1 12 Este 25 Este 0 -- -- 49
2019-06-03 22:00:00 23.7 15 Este 26 Este 0 -- -- 43
2019-06-03 21:00:00 27 15 Este 31 Este 0 -- -- 39
2019-06-03 20:00:00 30.5 17 Este 29 Este 0 -- -- 35
2019-06-03 19:00:00 32.3 16 Este 29 Sudeste 0 -- -- 32
2019-06-03 18:00:00 33.2 16 Este 31 Sudeste 0 -- -- 27
2019-06-03 17:00:00 33.8 15 Sudeste 25 Sudeste 0 -- -- 23
2019-06-03 16:00:00 34.2 9 Este 19 Sudeste 0 -- -- 24
2019-06-03 15:00:00 33 10 Este 22 Este 0 -- -- 25
2019-06-03 14:00:00 31.5 7 Nordeste 18 Este 0 -- -- 28
2019-06-03 13:00:00 29.4 4 Nordeste 13 Sudeste 0 -- -- 31
2019-06-03 12:00:00 26.2 7 Este 13 Sudeste 0 -- -- 35
2019-06-03 11:00:00 24.2 5 Este 12 Este 0 -- -- 38
2019-06-03 10:00:00 21.2 4 Oeste 9 Oeste 0 -- -- 44
2019-06-03 09:00:00 20.6 5 Este 9 Nordeste 0 -- -- 44
2019-06-03 08:00:00 17.5 2 Sur 6 Sudoeste 0 -- -- 57
2019-06-03 07:00:00 16.3 2 Noroeste 12 Este 0 -- -- 58
2019-06-03 06:00:00 17.6 6 Este 13 Sudeste 0 -- -- 51
2019-06-03 05:00:00 18.5 9 Sudeste 21 Este 0 -- -- 48
2019-06-03 04:00:00 19.5 9 Este 15 Este 0 -- -- 46
2019-06-03 03:00:00 20.2 6 Este 21 Este 0 -- -- 45
2019-06-03 02:00:00 20.7 10 Este 24 Noroeste 0 -- -- 46
2019-06-03 01:00:00 21.3 10 Noroeste 20 Noroeste 0 -- -- 45
2019-06-03 00:00:00 22.1 9 Este 18 Este 0 -- -- 41
2019-06-02 23:00:00 23 8 Nordeste 19 Este 0 -- -- 40
2019-06-02 22:00:00 26 9 Este 31 Este 0 -- -- 34
2019-06-02 21:00:00 29.3 16 Este 28 Sudeste 0 -- -- 28
2019-06-02 20:00:00 31.6 16 Este 30 Este 0 -- -- 26
2019-06-02 19:00:00 33.7 17 Sudeste 31 Sudeste 0 -- -- 23
2019-06-02 18:00:00 35.3 15 Sudeste 23 Sudeste 0 -- -- 21
2019-06-02 17:00:00 35.4 9 Este 18 Este 0 -- -- 22
2019-06-02 16:00:00 34.7 9 Nordeste 16 Nordeste 0 -- -- 24
2019-06-02 15:00:00 33.1 6 Nordeste 15 Este 0 -- -- 26
2019-06-02 14:00:00 31.2 5 Nordeste 13 Sudeste 0 -- -- 27
2019-06-02 13:00:00 29.2 6 Este 16 Este 0 -- -- 32
2019-06-02 12:00:00 26.5 5 Este 11 Sudeste 0 -- -- 35
2019-06-02 11:00:00 24.4 6 Este 12 Este 0 -- -- 37
2019-06-02 10:00:00 22.4 5 Este 10 Este 0 -- -- 41
2019-06-02 09:00:00 20.2 6 Este 12 Este 0 -- -- 46
2019-06-02 08:00:00 16.3 6 Sudoeste 12 Sudoeste 0 -- -- 61
2019-06-02 07:00:00 13.6 9 Sudoeste 10 Sudoeste 0 -- -- 65
2019-06-02 06:00:00 16.3 6 Sudeste 11 Sudeste 0 -- -- 51
2019-06-02 05:00:00 14.9 4 Nordeste 6 Nordeste 0 -- -- 59
2019-06-02 04:00:00 16.6 0 Calma 6 Nordeste 0 -- -- 55
2019-06-02 03:00:00 18 2 Este 8 Este 0 -- -- 47
2019-06-02 02:00:00 18.9 0 Calma 8 Nordeste 0 -- -- 50
2019-06-02 01:00:00 19.9 0 Calma 8 Este 0 -- -- 49
2019-06-02 00:00:00 21.5 5 Este 10 Este 0 -- -- 44
2019-06-01 23:00:00 24.3 5 Este 19 Este 0 -- -- 41
2019-06-01 22:00:00 26.5 12 Sudeste 25 Sudeste 0 -- -- 34
2019-06-01 21:00:00 29 16 Sudeste 29 Sudeste 0 -- -- 29
2019-06-01 20:00:00 31.5 17 Este 29 Sudeste 0 -- -- 28
2019-06-01 19:00:00 33.5 9 Este 16 Este 0 -- -- 21
2019-06-01 18:00:00 33.4 8 Nordeste 15 Nordeste 0 -- -- 22
2019-06-01 17:00:00 33.5 6 Sudeste 13 Noroeste 0 -- -- 24
2019-06-01 16:00:00 32.3 5 Nordeste 14 Este 0 -- -- 27
2019-06-01 15:00:00 31.7 5 Este 14 Este 0 -- -- 28
2019-06-01 14:00:00 30.4 7 Este 16 Este 0 -- -- 33
2019-06-01 13:00:00 28.3 4 Este 12 Este 0 -- -- 37
2019-06-01 12:00:00 25.6 6 Este 15 Sur 0 -- -- 42
2019-06-01 11:00:00 23.5 6 Sudeste 15 Sudeste 0 -- -- 46
2019-06-01 10:00:00 21.6 10 Sudeste 15 Este 0 -- -- 48
2019-06-01 09:00:00 19.5 6 Este 11 Este 0 -- -- 57
2019-06-01 08:00:00 15 2 Sudoeste 12 Sudoeste 0 -- -- 75
2019-06-01 07:00:00 12.5 9 Sudoeste 12 Sudoeste 0 -- -- 78
2019-06-01 06:00:00 12.8 9 Sudoeste 11 Sudoeste 0 -- -- 77
2019-06-01 05:00:00 13.3 9 Sudoeste 14 Sudoeste 0 -- -- 76
2019-06-01 04:00:00 15.1 0 Calma 5 Este 0 -- -- 69
2019-06-01 03:00:00 16.7 2 Sudoeste 9 Este 0 -- -- 64
2019-06-01 02:00:00 16.3 0 Calma 7 Sudoeste 0 -- -- 67
2019-06-01 01:00:00 18.9 2 Noroeste 6 Oeste 0 -- -- 58
2019-06-01 00:00:00 20.6 3 Nordeste 14 Este 0 -- -- 52
2019-05-31 23:00:00 22.8 9 Este 21 Este 0 -- -- 46
2019-05-31 22:00:00 24.9 14 Sudeste 26 Este 0 -- -- 41
2019-05-31 21:00:00 28 14 Sudeste 25 Sudeste 0 -- -- 36
2019-05-31 20:00:00 30.8 3 Norte 11 Norte 0 -- -- 30
2019-05-31 19:00:00 31.2 5 Norte 13 Noroeste 0 -- -- 29
2019-05-31 18:00:00 31.2 4 Norte 13 Nordeste 0 -- -- 28
2019-05-31 17:00:00 31.2 5 Este 13 Este 0 -- -- 26
2019-05-31 16:00:00 29.4 4 Noroeste 12 Este 0 -- -- 30
2019-05-31 15:00:00 27.8 3 Norte 13 Noroeste 0 -- -- 34
2019-05-31 14:00:00 26.5 6 Nordeste 15 Noroeste 0 -- -- 39
2019-05-31 13:00:00 24.5 7 Norte 15 Noroeste 0 -- -- 47
2019-05-31 12:00:00 22.9 6 Norte 11 Nordeste 0 -- -- 52
2019-05-31 11:00:00 21 6 Norte 14 Noroeste 0 -- -- 56
2019-05-31 10:00:00 19.4 5 Norte 8 Norte 0 -- -- 60
2019-05-31 09:00:00 17.6 3 Norte 6 Norte 0 -- -- 63
2019-05-31 08:00:00 15.2 2 Sudeste 7 Nordeste 0 -- -- 68
2019-05-31 07:00:00 12 2 Sur 6 Este 0 -- -- 77
2019-05-31 06:00:00 13.3 4 Este 7 Este 0 -- -- 74
2019-05-31 05:00:00 14.3 3 Sudeste 8 Sur 0 -- -- 71
2019-05-31 04:00:00 14.4 4 Este 9 Este 0 -- -- 72
2019-05-31 03:00:00 16 3 Sudeste 10 Este 0 -- -- 67
2019-05-31 02:00:00 17.2 3 Sudeste 9 Este 0 -- -- 63
2019-05-31 01:00:00 18.7 3 Oeste 14 Sudoeste 0 -- -- 58
2019-05-31 00:00:00 19.3 5 Sur 12 Sudoeste 0 -- -- 50
2019-05-30 23:00:00 20.6 11 Sudoeste 22 Sudoeste 0 -- -- 46
2019-05-30 22:00:00 23.8 4 Este 9 Sur 0 -- -- 41
2019-05-30 21:00:00 27.7 0 Calma 8 Norte 0 -- -- 30
2019-05-30 20:00:00 28.1 3 Norte 9 Norte 0 -- -- 31
2019-05-30 19:00:00 28.4 5 Norte 14 Norte 0 -- -- 29
2019-05-30 18:00:00 28.4 7 Norte 17 Noroeste 0 -- -- 28
2019-05-30 17:00:00 28.1 9 Norte 17 Norte 0 -- -- 26
2019-05-30 16:00:00 26.5 15 Norte 21 Norte 0 -- -- 30
2019-05-30 15:00:00 25.4 13 Noroeste 22 Noroeste 0 -- -- 35
2019-05-30 14:00:00 23.8 14 Noroeste 25 Noroeste 0 -- -- 37
2019-05-30 13:00:00 22.3 15 Noroeste 26 Noroeste 0 -- -- 41
2019-05-30 12:00:00 20.5 12 Noroeste 20 Noroeste 0 -- -- 47
2019-05-30 11:00:00 18.6 12 Noroeste 22 Noroeste 0 -- -- 52
2019-05-30 10:00:00 17.2 11 Noroeste 18 Noroeste 0 -- -- 57
2019-05-30 09:00:00 14.7 8 Noroeste 14 Noroeste 0 -- -- 67
2019-05-30 08:00:00 13.4 7 Noroeste 14 Oeste 0 -- -- 70
2019-05-30 07:00:00 10.7 5 Oeste 10 Sudoeste 0 -- -- 77
2019-05-30 06:00:00 11.3 5 Oeste 9 Noroeste 0 -- -- 75
2019-05-30 05:00:00 11.9 3 Noroeste 6 Nordeste 0 -- -- 72
2019-05-30 04:00:00 12.8 4 Nordeste 14 Noroeste 0 -- -- 68
2019-05-30 03:00:00 14.4 12 Noroeste 28 Noroeste 0 -- -- 58
2019-05-30 02:00:00 14.9 20 Noroeste 34 Oeste 0 -- -- 54
2019-05-30 01:00:00 15.5 18 Oeste 42 Noroeste 0 -- -- 52
2019-05-30 00:00:00 16.5 23 Noroeste 41 Noroeste 0 -- -- 50
2019-05-29 23:00:00 17.3 28 Noroeste 46 Noroeste 0 -- -- 49
2019-05-29 22:00:00 18.2 28 Oeste 58 Oeste 0 -- -- 47
2019-05-29 21:00:00 19.7 35 Noroeste 60 Oeste 0 -- -- 43
2019-05-29 20:00:00 21.4 28 Noroeste 55 Noroeste 0 -- -- 39
2019-05-29 19:00:00 22.1 34 Noroeste 56 Oeste 0 -- -- 37
2019-05-29 18:00:00 22.6 35 Noroeste 56 Oeste 0 -- -- 35
2019-05-29 17:00:00 22.5 35 Noroeste 59 Noroeste 0 -- -- 36
2019-05-29 16:00:00 22.5 33 Noroeste 54 Noroeste 0 -- -- 35
2019-05-29 15:00:00 21.9 33 Noroeste 53 Oeste 0 -- -- 34
2019-05-29 14:00:00 20.9 31 Noroeste 50 Oeste 0 -- -- 38
2019-05-29 13:00:00 19.8 33 Noroeste 55 Oeste 0 -- -- 41
2019-05-29 12:00:00 18.9 33 Noroeste 57 Oeste 0 -- -- 47
2019-05-29 11:00:00 17.8 32 Noroeste 53 Oeste 0 -- -- 50
2019-05-29 10:00:00 16.2 35 Noroeste 53 Oeste 0 -- -- 56
2019-05-29 09:00:00 15 31 Noroeste 48 Oeste 0 -- -- 60
2019-05-29 08:00:00 13.4 27 Oeste 45 Oeste 0 -- -- 64
2019-05-29 07:00:00 12.2 23 Oeste 41 Oeste 0 -- -- 67
2019-05-29 06:00:00 12.6 23 Noroeste 45 Noroeste 0 -- -- 64
2019-05-29 05:00:00 12.6 26 Noroeste 41 Noroeste 0 -- -- 64
2019-05-29 04:00:00 12.9 30 Oeste 54 Noroeste 0 -- -- 62
2019-05-29 03:00:00 13.4 31 Noroeste 54 Noroeste 0 -- -- 60
2019-05-29 02:00:00 13.6 37 Noroeste 72 Noroeste 0 -- -- 58
2019-05-29 01:00:00 14 44 Noroeste 74 Oeste 0 -- -- 58
2019-05-29 00:00:00 14.8 45 Noroeste 77 Noroeste 0 -- -- 53
2019-05-28 23:00:00 15.3 53 Noroeste 83 Noroeste 0 -- -- 50
2019-05-28 22:00:00 16.2 49 Noroeste 77 Oeste 0 -- -- 45
2019-05-28 21:00:00 17.1 51 Noroeste 82 Noroeste 0 -- -- 41
2019-05-28 20:00:00 18.2 49 Noroeste 86 Noroeste 0 -- -- 43
2019-05-28 19:00:00 19.2 49 Noroeste 80 Noroeste 0 -- -- 43
2019-05-28 18:00:00 19.9 46 Noroeste 72 Noroeste 0 -- -- 42
2019-05-28 17:00:00 21 42 Noroeste 77 Oeste 0 -- -- 39
2019-05-28 16:00:00 20.8 42 Noroeste 63 Oeste 0 -- -- 36
2019-05-28 15:00:00 20.2 41 Oeste 61 Oeste 0 -- -- 42
2019-05-28 14:00:00 20.1 36 Oeste 63 Oeste 0 -- -- 42
2019-05-28 13:00:00 19.8 42 Oeste 62 Noroeste 0 -- -- 44
2019-05-28 12:00:00 18.4 38 Oeste 65 Oeste 0 -- -- 46
2019-05-28 11:00:00 17.1 34 Noroeste 55 Noroeste 0 -- -- 49
2019-05-28 10:00:00 15.8 37 Noroeste 60 Oeste 0 -- -- 53
2019-05-28 09:00:00 14.8 33 Noroeste 78 Oeste 0 -- -- 54
2019-05-28 08:00:00 13.8 37 Oeste 54 Oeste 0 -- -- 56
2019-05-28 07:00:00 13 24 Oeste 50 Oeste 0 -- -- 59
2019-05-28 06:00:00 13.1 20 Oeste 49 Oeste 0 -- -- 58
2019-05-28 05:00:00 13.5 29 Oeste 53 Oeste 0 -- -- 57
2019-05-28 04:00:00 14 24 Oeste 46 Oeste 0 -- -- 59
2019-05-28 03:00:00 14.6 30 Oeste 48 Oeste 0 -- -- 59
2019-05-28 02:00:00 15 27 Oeste 44 Oeste 0 -- -- 58
2019-05-28 01:00:00 15.6 17 Oeste 44 Oeste 0 -- -- 54
2019-05-28 00:00:00 16.7 23 Oeste 57 Oeste 0 -- -- 51
2019-05-27 23:00:00 18.1 32 Oeste 60 Noroeste 0 -- -- 56
2019-05-27 22:00:00 19.7 36 Noroeste 67 Oeste 0 -- -- 55
2019-05-27 21:00:00 21.1 30 Noroeste 53 Noroeste 0 -- -- 52
2019-05-27 20:00:00 22.1 31 Noroeste 65 Noroeste 0 -- -- 49
2019-05-27 19:00:00 23.5 37 Noroeste 59 Oeste 0 -- -- 47
2019-05-27 18:00:00 24.6 37 Noroeste 58 Noroeste 0 -- -- 43
2019-05-27 17:00:00 24.8 32 Noroeste 51 Oeste 0 -- -- 45
2019-05-27 16:00:00 24.3 29 Noroeste 46 Oeste 0 -- -- 45
2019-05-27 15:00:00 22.9 23 Noroeste 42 Noroeste 0 -- -- 48
2019-05-27 14:00:00 21.3 25 Noroeste 47 Oeste 0 -- -- 51
2019-05-27 13:00:00 20.4 24 Noroeste 42 Noroeste 0 -- -- 52
2019-05-27 12:00:00 19.9 27 Oeste 48 Oeste 0 -- -- 52
2019-05-27 11:00:00 18.3 26 Noroeste 47 Oeste 0 -- -- 56
2019-05-27 10:00:00 17.5 25 Noroeste 44 Oeste 0 -- -- 60
2019-05-27 09:00:00 16 26 Noroeste 41 Noroeste 0 -- -- 63
2019-05-27 08:00:00 14.7 22 Noroeste 37 Noroeste 0 -- -- 68
2019-05-27 07:00:00 13 14 Noroeste 34 Oeste 0 -- -- 74
2019-05-27 06:00:00 13.3 21 Oeste 36 Oeste 0 -- -- 73
2019-05-27 05:00:00 13.5 15 Oeste 36 Oeste 0 -- -- 73
2019-05-27 04:00:00 14.1 17 Oeste 39 Noroeste 0 -- -- 72
2019-05-27 03:00:00 14.4 17 Oeste 38 Oeste 0 -- -- 70
2019-05-27 02:00:00 14.8 23 Oeste 37 Oeste 0 -- -- 68
2019-05-27 01:00:00 15.4 20 Oeste 39 Oeste 0 -- -- 63
2019-05-27 00:00:00 15.9 27 Noroeste 56 Noroeste 0 -- -- 62
2019-05-26 23:00:00 16.6 30 Oeste 50 Noroeste 0 -- -- 62
2019-05-26 22:00:00 17.7 30 Noroeste 50 Noroeste 0 -- -- 58
2019-05-26 21:00:00 19.4 34 Noroeste 55 Oeste 0 -- -- 52
2019-05-26 20:00:00 20.9 35 Noroeste 60 Oeste 0 -- -- 48
2019-05-26 19:00:00 22.5 31 Noroeste 50 Noroeste 0 -- -- 44
2019-05-26 18:00:00 23 31 Oeste 55 Oeste 0 -- -- 44
2019-05-26 17:00:00 23.1 30 Noroeste 48 Oeste 0 -- -- 44
2019-05-26 16:00:00 23.1 28 Oeste 44 Oeste 0 -- -- 42
2019-05-26 15:00:00 22.5 28 Oeste 53 Noroeste 0 -- -- 42
2019-05-26 14:00:00 21.7 28 Oeste 48 Oeste 0 -- -- 47
2019-05-26 13:00:00 20.8 25 Noroeste 38 Noroeste 0 -- -- 48
2019-05-26 12:00:00 19.4 23 Noroeste 37 Oeste 0 -- -- 51
2019-05-26 11:00:00 17.9 25 Noroeste 44 Oeste 0 -- -- 55
2019-05-26 10:00:00 16.5 30 Noroeste 52 Oeste 0 -- -- 58
2019-05-26 09:00:00 15.2 32 Noroeste 52 Oeste 0 -- -- 61
2019-05-26 08:00:00 14.1 27 Noroeste 51 Oeste 0 -- -- 64
2019-05-26 07:00:00 12.8 26 Noroeste 51 Noroeste 0 -- -- 66
2019-05-26 06:00:00 12.8 27 Oeste 49 Oeste 0 -- -- 66
2019-05-26 05:00:00 13 29 Noroeste 48 Noroeste 0 -- -- 66
2019-05-26 04:00:00 13.2 30 Noroeste 59 Noroeste 0 -- -- 66
2019-05-26 03:00:00 13.4 35 Noroeste 57 Oeste 0 -- -- 68
2019-05-26 02:00:00 13.7 31 Oeste 59 Oeste 0 -- -- 68
2019-05-26 01:00:00 14 30 Oeste 46 Oeste 0 -- -- 68
2019-05-26 00:00:00 14.6 27 Oeste 51 Oeste 0 -- -- 65
2019-05-25 23:00:00 15.3 33 Oeste 68 Oeste 0 -- -- 64
2019-05-25 22:00:00 16.6 34 Noroeste 57 Oeste 0 -- -- 61
2019-05-25 21:00:00 18.5 35 Noroeste 58 Oeste 0 -- -- 56
2019-05-25 20:00:00 20.1 37 Noroeste 62 Noroeste 0 -- -- 52
2019-05-25 19:00:00 21.2 41 Noroeste 65 Oeste 0 -- -- 49
2019-05-25 18:00:00 22.3 38 Noroeste 55 Noroeste 0 -- -- 45
2019-05-25 17:00:00 22.8 32 Noroeste 53 Noroeste 0 -- -- 45
2019-05-25 16:00:00 22.9 32 Noroeste 51 Noroeste 0 -- -- 45
2019-05-25 15:00:00 22.4 31 Noroeste 59 Noroeste 0 -- -- 47
2019-05-25 14:00:00 21.5 35 Noroeste 54 Oeste 0 -- -- 50
2019-05-25 13:00:00 20.5 35 Noroeste 51 Noroeste 0 -- -- 54
2019-05-25 12:00:00 19.5 32 Noroeste 52 Oeste 0 -- -- 55
2019-05-25 11:00:00 18.4 31 Noroeste 52 Oeste 0 -- -- 59
2019-05-25 10:00:00 16.9 32 Noroeste 54 Noroeste 0 -- -- 63
2019-05-25 09:00:00 15 33 Noroeste 51 Noroeste 0 -- -- 68
2019-05-25 08:00:00 13.9 28 Noroeste 46 Noroeste 0 -- -- 71
2019-05-25 07:00:00 13.5 27 Noroeste 46 Noroeste 0 -- -- 72
2019-05-25 06:00:00 13.7 25 Oeste 44 Oeste 0 -- -- 72
2019-05-25 05:00:00 13.8 26 Noroeste 42 Oeste 0 -- -- 72
2019-05-25 04:00:00 14 28 Oeste 53 Oeste 0 -- -- 70
2019-05-25 03:00:00 14 31 Oeste 50 Noroeste 0 -- -- 71
2019-05-25 02:00:00 14.3 25 Oeste 46 Noroeste 0 -- -- 71
2019-05-25 01:00:00 14.6 27 Oeste 45 Noroeste 0 -- -- 71
2019-05-25 00:00:00 15 27 Oeste 47 Oeste 0 -- -- 71
2019-05-24 23:00:00 15.7 29 Noroeste 48 Noroeste 0 -- -- 67
2019-05-24 22:00:00 16.3 24 Noroeste 52 Noroeste 0 -- -- 66
2019-05-24 21:00:00 17.5 32 Noroeste 47 Oeste 0 -- -- 62
2019-05-24 20:00:00 18.2 26 Noroeste 46 Noroeste 0 -- -- 60
2019-05-24 19:00:00 18.8 27 Noroeste 45 Noroeste 0 -- -- 59
2019-05-24 18:00:00 18.9 27 Noroeste 42 Noroeste 0 -- -- 59
2019-05-24 17:00:00 19.5 31 Noroeste 49 Noroeste 0 -- -- 55
2019-05-24 16:00:00 20.5 29 Noroeste 47 Noroeste 0 -- -- 57
2019-05-24 15:00:00 18.8 25 Oeste 40 Noroeste 0 -- -- 63
2019-05-24 14:00:00 16.6 22 Oeste 40 Oeste 0 -- -- 74
2019-05-24 13:00:00 16 20 Noroeste 32 Oeste 0 -- -- 80
2019-05-24 12:00:00 14.9 19 Oeste 36 Oeste 0 -- -- 86
2019-05-24 11:00:00 13.8 21 Noroeste 39 Oeste 0.2 -- -- 91
2019-05-24 10:00:00 13.3 20 Noroeste 40 Noroeste 3.2 -- -- 93
2019-05-24 09:00:00 13.1 28 Noroeste 62 Noroeste 3.2 -- -- 91
2019-05-24 08:00:00 13.5 20 Oeste 42 Oeste 0.8 -- -- 90
2019-05-24 07:00:00 14.1 19 Noroeste 33 Noroeste 0 -- -- 88
2019-05-24 06:00:00 14 19 Oeste 28 Oeste 0 -- -- 89
2019-05-24 05:00:00 14 12 Oeste 22 Oeste 1.6 -- -- 89
2019-05-24 04:00:00 14.4 13 Noroeste 33 Noroeste 0.4 -- -- 84
2019-05-24 03:00:00 15.5 18 Oeste 34 Noroeste 0 -- -- 75
2019-05-24 02:00:00 16.1 17 Noroeste 33 Noroeste 0 -- -- 72
2019-05-24 01:00:00 17.5 15 Noroeste 30 Noroeste 0.2 -- -- 85
2019-05-24 00:00:00 18.3 14 Noroeste 30 Noroeste 0.2 -- -- 80
2019-05-23 23:00:00 19.9 13 Norte 47 Oeste 0.2 -- -- 66
2019-05-23 22:00:00 21.5 33 Oeste 57 Oeste 0 -- -- 59
2019-05-23 21:00:00 22.4 14 Oeste 33 Noroeste 0 -- -- 55
2019-05-23 20:00:00 24.4 9 Noroeste 42 Sudoeste 0 -- -- 46
2019-05-23 19:00:00 27.9 8 Noroeste 11 Noroeste 0 -- -- 36
2019-05-23 18:00:00 29 5 Noroeste 9 Oeste 0 -- -- 26
2019-05-23 17:00:00 28.8 7 Norte 11 Norte 0 -- -- 33
2019-05-23 16:00:00 27.8 8 Noroeste 12 Norte 0 -- -- 32
2019-05-23 15:00:00 27.8 7 Noroeste 14 Noroeste 0 -- -- 29
2019-05-23 14:00:00 26.7 7 Noroeste 12 Noroeste 0 -- -- 30
2019-05-23 13:00:00 25.5 5 Norte 17 Sur 0 -- -- 37
2019-05-23 12:00:00 23.9 4 Norte 11 Este 0 -- -- 44
2019-05-23 11:00:00 21.7 4 Nordeste 10 Este 0 -- -- 52
2019-05-23 10:00:00 19.3 3 Nordeste 7 Este 0 -- -- 55
2019-05-23 09:00:00 15.7 0 Calma 6 Noroeste 0 -- -- 59
2019-05-23 08:00:00 12.8 0 Calma 7 Sudoeste 0 -- -- 69
2019-05-23 07:00:00 10.5 5 Oeste 7 Oeste 0 -- -- 74
2019-05-23 06:00:00 10.5 0 Calma 10 Sudoeste 0 -- -- 72
2019-05-23 05:00:00 11.3 2 Sudeste 9 Sur 0 -- -- 67
2019-05-23 04:00:00 12.5 0 Calma 4 Sur 0 -- -- 64
2019-05-23 03:00:00 13 3 Este 8 Este 0 -- -- 56
2019-05-23 02:00:00 14 3 Sudoeste 9 Este 0 -- -- 63
2019-05-23 01:00:00 14.7 4 Sur 7 Sur 0 -- -- 60
2019-05-23 00:00:00 16.6 5 Sudoeste 8 Oeste 0 -- -- 53
2019-05-22 23:00:00 17.4 6 Oeste 13 Sudoeste 0 -- -- 51
2019-05-22 22:00:00 19.9 12 Sudoeste 16 Sudoeste 0 -- -- 45
2019-05-22 21:00:00 24 10 Sudoeste 13 Sudoeste 0 -- -- 40
2019-05-22 20:00:00 26.6 6 Noroeste 11 Norte 0 -- -- 27
2019-05-22 19:00:00 26.4 7 Norte 15 Noroeste 0 -- -- 29
2019-05-22 18:00:00 26.3 10 Noroeste 26 Noroeste 0 -- -- 26
2019-05-22 17:00:00 25.9 20 Noroeste 29 Norte 0 -- -- 23
2019-05-22 16:00:00 25.3 12 Norte 24 Norte 0 -- -- 29
2019-05-22 15:00:00 24.4 14 Noroeste 26 Noroeste 0 -- -- 33
2019-05-22 14:00:00 23.3 13 Noroeste 23 Noroeste 0 -- -- 34
2019-05-22 13:00:00 21.7 12 Noroeste 23 Noroeste 0 -- -- 47
2019-05-22 12:00:00 19.5 15 Noroeste 27 Noroeste 0 -- -- 50
2019-05-22 11:00:00 18 17 Noroeste 24 Noroeste 0 -- -- 53
2019-05-22 10:00:00 16.9 14 Noroeste 21 Noroeste 0 -- -- 57
2019-05-22 09:00:00 15.3 8 Norte 13 Noroeste 0 -- -- 62
2019-05-22 08:00:00 13.7 3 Norte 9 Este 0 -- -- 67
2019-05-22 07:00:00 11.1 0 Calma 10 Sudeste 0 -- -- 74
2019-05-22 06:00:00 12.6 9 Noroeste 15 Noroeste 0 -- -- 71
2019-05-22 05:00:00 13 3 Nordeste 15 Oeste 0 -- -- 70
2019-05-22 04:00:00 14.3 2 Este 16 Noroeste 0 -- -- 64
2019-05-22 03:00:00 15.3 6 Oeste 22 Noroeste 0 -- -- 60
2019-05-22 02:00:00 14.7 9 Noroeste 15 Noroeste 0 -- -- 65
2019-05-22 01:00:00 14.8 5 Noroeste 9 Oeste 0 -- -- 63
2019-05-22 00:00:00 16.6 5 Noroeste 22 Oeste 0 -- -- 51
2019-05-21 23:00:00 18.1 16 Oeste 26 Oeste 0 -- -- 38
2019-05-21 22:00:00 20.2 14 Oeste 21 Oeste 0 -- -- 34
2019-05-21 21:00:00 22.7 10 Oeste 21 Oeste 0 -- -- 26
2019-05-21 20:00:00 24.5 12 Noroeste 21 Noroeste 0 -- -- 26
2019-05-21 19:00:00 25.1 15 Noroeste 27 Noroeste 0 -- -- 23
2019-05-21 18:00:00 25 15 Noroeste 27 Noroeste 0 -- -- 27
2019-05-21 17:00:00 24.2 22 Noroeste 31 Noroeste 0 -- -- 19
2019-05-21 16:00:00 23.8 18 Noroeste 29 Noroeste 0 -- -- 30
2019-05-21 15:00:00 23.2 13 Noroeste 28 Noroeste 0 -- -- 34
2019-05-21 14:00:00 21.7 15 Noroeste 26 Noroeste 0 -- -- 40
2019-05-21 13:00:00 20 13 Noroeste 24 Norte 0 -- -- 49
2019-05-21 12:00:00 18.6 15 Noroeste 24 Noroeste 0 -- -- 50
2019-05-21 11:00:00 17.5 12 Noroeste 21 Oeste 0 -- -- 52
2019-05-21 10:00:00 16 10 Noroeste 20 Oeste 0 -- -- 60
2019-05-21 09:00:00 14.3 12 Oeste 17 Noroeste 0 -- -- 63
2019-05-21 08:00:00 11.5 2 Sudoeste 8 Sudoeste 0 -- -- 75
2019-05-21 07:00:00 10.1 3 Sur 7 Oeste 0 -- -- 78
2019-05-21 06:00:00 11 2 Norte 12 Noroeste 0 -- -- 74
2019-05-21 05:00:00 11.4 8 Noroeste 14 Noroeste 0 -- -- 75
2019-05-21 04:00:00 12 2 Oeste 10 Noroeste 0 -- -- 73
2019-05-21 03:00:00 12.1 8 Noroeste 15 Noroeste 0 -- -- 72
2019-05-21 02:00:00 13.7 6 Sudoeste 21 Oeste 0 -- -- 62
2019-05-21 01:00:00 14.4 14 Oeste 23 Oeste 0 -- -- 58
2019-05-21 00:00:00 13.6 14 Sudoeste 18 Sudoeste 0 -- -- 63